createdAt,value
2016-12-30T00:00:18.407Z,0
2016-12-30T00:00:58.863Z,0
2016-12-30T00:01:39.377Z,0
2016-12-30T00:02:19.791Z,0
2016-12-30T00:03:00.290Z,0
2016-12-30T00:03:40.756Z,0
2016-12-30T00:04:21.231Z,0
2016-12-30T00:05:01.706Z,0
2016-12-30T00:05:42.207Z,0
2016-12-30T00:06:22.754Z,0
2016-12-30T00:07:03.188Z,0
2016-12-30T00:07:43.775Z,0
2016-12-30T00:08:24.303Z,0
2016-12-30T00:09:04.807Z,0
2016-12-30T00:09:45.220Z,0
2016-12-30T00:10:25.714Z,0
2016-12-30T00:11:06.258Z,0
2016-12-30T00:11:46.784Z,0
2016-12-30T00:12:27.273Z,0
2016-12-30T00:13:07.735Z,0
2016-12-30T00:13:48.212Z,0
2016-12-30T00:14:28.727Z,0
2016-12-30T00:15:09.186Z,0
2016-12-30T00:15:49.676Z,0
2016-12-30T00:16:30.175Z,0
2016-12-30T00:17:10.666Z,0
2016-12-30T00:17:53.087Z,0
2016-12-30T00:18:33.562Z,0
2016-12-30T00:19:14.060Z,0
2016-12-30T00:19:54.505Z,0
2016-12-30T00:20:35.018Z,0
2016-12-30T00:21:15.576Z,0
2016-12-30T00:21:56.050Z,0
2016-12-30T00:22:36.477Z,0
2016-12-30T00:23:16.972Z,0
2016-12-30T00:23:57.503Z,0
2016-12-30T00:24:37.980Z,0
2016-12-30T00:25:18.430Z,0
2016-12-30T00:25:58.962Z,0
2016-12-30T00:26:39.428Z,0
2016-12-30T00:27:19.888Z,0
2016-12-30T00:28:00.399Z,0
2016-12-30T00:28:40.882Z,0
2016-12-30T00:29:21.311Z,0
2016-12-30T00:30:01.854Z,0
2016-12-30T00:30:42.314Z,0
2016-12-30T00:31:22.822Z,0
2016-12-30T00:32:03.353Z,0
2016-12-30T00:32:43.809Z,0
2016-12-30T00:33:24.371Z,0
2016-12-30T00:34:04.851Z,0
2016-12-30T00:34:45.306Z,0
2016-12-30T00:35:25.773Z,0
2016-12-30T00:36:06.305Z,0
2016-12-30T00:36:46.756Z,0
2016-12-30T00:37:27.222Z,0
2016-12-30T00:38:07.690Z,0
2016-12-30T00:38:48.179Z,0
2016-12-30T00:39:28.658Z,0
2016-12-30T00:40:09.154Z,0
2016-12-30T00:40:49.676Z,0
2016-12-30T00:41:30.169Z,0
2016-12-30T00:42:10.691Z,0
2016-12-30T00:42:51.145Z,0
2016-12-30T00:43:31.657Z,0
2016-12-30T00:44:12.261Z,0
2016-12-30T00:44:52.744Z,0
2016-12-30T00:45:33.273Z,0
2016-12-30T00:46:13.690Z,0
2016-12-30T00:46:54.202Z,0
2016-12-30T00:47:34.623Z,0
2016-12-30T00:48:15.142Z,0
2016-12-30T00:48:55.596Z,0
2016-12-30T00:49:36.116Z,0
2016-12-30T00:50:16.603Z,0
2016-12-30T00:50:57.104Z,0
2016-12-30T00:51:37.594Z,0
2016-12-30T00:52:18.101Z,0
2016-12-30T00:52:58.573Z,0
2016-12-30T00:53:39.066Z,0
2016-12-30T00:54:19.583Z,0
2016-12-30T00:55:00.059Z,0
2016-12-30T00:55:40.530Z,0
2016-12-30T00:56:21.027Z,0
2016-12-30T00:57:01.557Z,0
2016-12-30T00:57:41.959Z,0
2016-12-30T00:58:22.500Z,0
2016-12-30T00:59:02.998Z,0
2016-12-30T00:59:43.490Z,0
2016-12-30T01:00:24.050Z,0
2016-12-30T01:01:04.465Z,0
2016-12-30T01:01:44.968Z,0
2016-12-30T01:02:25.453Z,0
2016-12-30T01:03:05.927Z,0
2016-12-30T01:03:46.441Z,0
2016-12-30T01:04:26.930Z,0
2016-12-30T01:05:07.402Z,0
2016-12-30T01:05:47.932Z,0
2016-12-30T01:06:28.331Z,0
2016-12-30T01:07:08.834Z,0
2016-12-30T01:07:49.395Z,0
2016-12-30T01:08:29.828Z,0
2016-12-30T01:09:10.327Z,0
2016-12-30T01:09:50.825Z,0
2016-12-30T01:10:31.308Z,0
2016-12-30T01:11:11.768Z,0
2016-12-30T01:11:52.256Z,0
2016-12-30T01:12:32.758Z,0
2016-12-30T01:13:13.204Z,0
2016-12-30T01:13:53.682Z,0
2016-12-30T01:14:34.167Z,0
2016-12-30T01:15:14.688Z,0
2016-12-30T01:15:55.127Z,0
2016-12-30T01:16:35.655Z,0
2016-12-30T01:17:16.085Z,0
2016-12-30T01:17:56.584Z,0
2016-12-30T01:18:37.073Z,0
2016-12-30T01:19:17.567Z,0
2016-12-30T01:19:58.060Z,0
2016-12-30T01:20:38.556Z,0
2016-12-30T01:21:18.940Z,0
2016-12-30T01:21:59.473Z,0
2016-12-30T01:22:40.013Z,0
2016-12-30T01:23:20.484Z,0
2016-12-30T01:24:00.964Z,0
2016-12-30T01:24:41.427Z,0
2016-12-30T01:25:21.922Z,0
2016-12-30T01:26:02.415Z,0
2016-12-30T01:26:42.872Z,0
2016-12-30T01:27:23.379Z,0
2016-12-30T01:28:03.839Z,0
2016-12-30T01:28:44.319Z,0
2016-12-30T01:29:24.793Z,0
2016-12-30T01:30:05.305Z,0
2016-12-30T01:30:45.751Z,0
2016-12-30T01:31:26.248Z,0
2016-12-30T01:32:06.776Z,0
2016-12-30T01:32:47.308Z,0
2016-12-30T01:33:27.784Z,0
2016-12-30T01:34:08.259Z,0
2016-12-30T01:34:48.762Z,0
2016-12-30T01:35:29.235Z,0
2016-12-30T01:36:09.739Z,0
2016-12-30T01:36:50.192Z,0
2016-12-30T01:37:30.723Z,0
2016-12-30T01:38:11.157Z,0
2016-12-30T01:38:51.746Z,0
2016-12-30T01:39:32.245Z,0
2016-12-30T01:40:12.707Z,0
2016-12-30T01:40:53.189Z,0
2016-12-30T01:41:33.696Z,0
2016-12-30T01:42:14.181Z,0
2016-12-30T01:42:54.652Z,0
2016-12-30T01:43:35.218Z,0
2016-12-30T01:44:15.640Z,0
2016-12-30T01:44:56.200Z,0
2016-12-30T01:45:36.642Z,0
2016-12-30T01:46:17.151Z,0
2016-12-30T01:46:57.634Z,0
2016-12-30T01:47:38.143Z,0
2016-12-30T01:48:18.650Z,0
2016-12-30T01:48:59.101Z,0
2016-12-30T01:49:39.600Z,0
2016-12-30T01:50:20.101Z,0
2016-12-30T01:51:00.602Z,0
2016-12-30T01:51:41.059Z,0
2016-12-30T01:52:21.580Z,0
2016-12-30T01:53:02.032Z,0
2016-12-30T01:53:42.592Z,0
2016-12-30T01:54:23.101Z,0
2016-12-30T01:55:03.581Z,0
2016-12-30T01:55:44.138Z,0
2016-12-30T01:56:24.708Z,0
2016-12-30T01:57:05.166Z,0
2016-12-30T01:57:45.621Z,0
2016-12-30T01:58:26.088Z,0
2016-12-30T01:59:06.593Z,0
2016-12-30T01:59:47.123Z,0
2016-12-30T02:00:27.586Z,0
2016-12-30T02:01:08.045Z,0
2016-12-30T02:01:48.520Z,0
2016-12-30T02:02:29.034Z,0
2016-12-30T02:03:09.565Z,0
2016-12-30T02:03:50.154Z,0
2016-12-30T02:04:30.651Z,0
2016-12-30T02:05:11.111Z,0
2016-12-30T02:05:51.656Z,0
2016-12-30T02:06:32.110Z,0
2016-12-30T02:07:12.611Z,0
2016-12-30T02:07:53.083Z,0
2016-12-30T02:08:33.574Z,0
2016-12-30T02:09:14.082Z,0
2016-12-30T02:09:54.517Z,0
2016-12-30T02:10:35.009Z,0
2016-12-30T02:11:15.512Z,0
2016-12-30T02:11:55.964Z,0
2016-12-30T02:12:36.493Z,0
2016-12-30T02:13:17.009Z,0
2016-12-30T02:13:57.470Z,0
2016-12-30T02:14:37.992Z,0
2016-12-30T02:15:18.450Z,0
2016-12-30T02:15:58.917Z,0
2016-12-30T02:16:39.464Z,0
2016-12-30T02:17:19.920Z,0
2016-12-30T02:18:00.396Z,0
2016-12-30T02:18:40.877Z,0
2016-12-30T02:19:21.378Z,0
2016-12-30T02:20:01.806Z,0
2016-12-30T02:22:16.016Z,0
2016-12-30T02:22:56.485Z,0
2016-12-30T02:23:37.002Z,0
2016-12-30T02:24:17.568Z,0
2016-12-30T02:24:58.057Z,0
2016-12-30T02:25:38.521Z,0
2016-12-30T02:26:19.031Z,0
2016-12-30T02:26:59.531Z,0
2016-12-30T02:27:40.065Z,0
2016-12-30T02:28:20.505Z,0
2016-12-30T02:29:01.053Z,0
2016-12-30T02:29:41.521Z,0
2016-12-30T02:30:22.039Z,0
2016-12-30T02:31:02.488Z,0
2016-12-30T02:31:43.079Z,0
2016-12-30T02:32:23.479Z,0
2016-12-30T02:33:03.973Z,0
2016-12-30T02:33:44.480Z,0
2016-12-30T02:34:24.962Z,0
2016-12-30T02:35:05.473Z,0
2016-12-30T02:35:45.982Z,0
2016-12-30T02:36:26.469Z,0
2016-12-30T02:37:06.946Z,0
2016-12-30T02:37:47.479Z,0
2016-12-30T02:38:27.967Z,0
2016-12-30T02:39:08.429Z,0
2016-12-30T02:39:48.984Z,0
2016-12-30T02:40:29.463Z,0
2016-12-30T02:41:09.927Z,0
2016-12-30T02:41:50.492Z,0
2016-12-30T02:42:31.103Z,0
2016-12-30T02:43:11.576Z,0
2016-12-30T02:43:52.119Z,0
2016-12-30T02:44:32.514Z,0
2016-12-30T02:45:13.012Z,0
2016-12-30T02:45:53.495Z,0
2016-12-30T02:46:34.020Z,0
2016-12-30T02:47:14.481Z,0
2016-12-30T02:47:54.938Z,0
2016-12-30T02:48:35.458Z,0
2016-12-30T02:49:15.904Z,0
2016-12-30T02:49:56.408Z,0
2016-12-30T02:50:36.910Z,0
2016-12-30T02:51:17.415Z,0
2016-12-30T02:51:57.850Z,0
2016-12-30T02:52:38.310Z,0
2016-12-30T02:53:18.800Z,0
2016-12-30T02:53:59.271Z,0
2016-12-30T02:54:39.811Z,0
2016-12-30T02:55:20.252Z,0
2016-12-30T02:56:00.720Z,0
2016-12-30T02:56:41.176Z,0
2016-12-30T02:57:21.675Z,0
2016-12-30T02:58:02.205Z,0
2016-12-30T02:58:42.633Z,0
2016-12-30T02:59:23.093Z,0
2016-12-30T03:00:03.586Z,0
2016-12-30T03:00:44.118Z,0
2016-12-30T03:01:24.590Z,0
2016-12-30T03:02:05.094Z,0
2016-12-30T03:02:45.538Z,0
2016-12-30T03:03:26.050Z,0
2016-12-30T03:04:06.581Z,0
2016-12-30T03:04:47.038Z,0
2016-12-30T03:05:27.496Z,0
2016-12-30T03:06:07.987Z,0
2016-12-30T03:06:48.469Z,0
2016-12-30T03:07:28.942Z,0
2016-12-30T03:08:09.414Z,0
2016-12-30T03:08:49.883Z,0
2016-12-30T03:09:30.387Z,0
2016-12-30T03:10:10.846Z,0
2016-12-30T03:10:51.386Z,0
2016-12-30T03:11:31.848Z,0
2016-12-30T03:12:12.358Z,0
2016-12-30T03:12:52.805Z,0
2016-12-30T03:13:33.294Z,0
2016-12-30T03:14:13.754Z,0
2016-12-30T03:14:54.265Z,0
2016-12-30T03:15:34.753Z,0
2016-12-30T03:16:15.251Z,0
2016-12-30T03:16:55.704Z,0
2016-12-30T03:17:36.269Z,0
2016-12-30T03:18:16.717Z,0
2016-12-30T03:18:57.272Z,0
2016-12-30T03:19:37.760Z,0
2016-12-30T03:20:18.183Z,0
2016-12-30T03:20:58.723Z,0
2016-12-30T03:21:39.193Z,0
2016-12-30T03:22:19.656Z,0
2016-12-30T03:23:00.140Z,0
2016-12-30T03:23:40.634Z,0
2016-12-30T03:24:21.173Z,0
2016-12-30T03:25:01.663Z,0
2016-12-30T03:25:42.160Z,0
2016-12-30T03:26:22.640Z,0
2016-12-30T03:27:03.076Z,0
2016-12-30T03:27:43.594Z,0
2016-12-30T03:28:24.082Z,0
2016-12-30T03:29:04.579Z,0
2016-12-30T03:29:45.040Z,0
2016-12-30T03:30:25.515Z,0
2016-12-30T03:31:06.006Z,0
2016-12-30T03:31:46.595Z,0
2016-12-30T03:32:27.083Z,0
2016-12-30T03:33:07.561Z,0
2016-12-30T03:33:48.034Z,0
2016-12-30T03:34:28.504Z,0
2016-12-30T03:35:08.971Z,0
2016-12-30T03:35:49.419Z,0
2016-12-30T03:36:29.924Z,0
2016-12-30T03:37:10.383Z,0
2016-12-30T03:37:50.867Z,0
2016-12-30T03:38:31.389Z,0
2016-12-30T03:39:11.873Z,0
2016-12-30T03:39:52.409Z,0
2016-12-30T03:40:32.867Z,0
2016-12-30T03:41:13.391Z,0
2016-12-30T03:41:53.842Z,0
2016-12-30T03:42:34.294Z,0
2016-12-30T03:43:14.773Z,0
2016-12-30T03:43:55.268Z,0
2016-12-30T03:44:35.816Z,0
2016-12-30T03:45:16.299Z,0
2016-12-30T03:45:56.792Z,0
2016-12-30T03:46:37.926Z,0
2016-12-30T03:47:18.423Z,0
2016-12-30T03:47:58.923Z,0
2016-12-30T03:48:39.380Z,0
2016-12-30T03:49:19.882Z,0
2016-12-30T03:50:00.371Z,0
2016-12-30T03:50:40.827Z,0
2016-12-30T03:51:21.310Z,0
2016-12-30T03:52:01.865Z,0
2016-12-30T03:52:42.326Z,0
2016-12-30T03:53:22.814Z,0
2016-12-30T03:54:03.272Z,0
2016-12-30T03:54:43.710Z,0
2016-12-30T03:55:24.167Z,0
2016-12-30T03:56:04.686Z,0
2016-12-30T03:56:45.177Z,0
2016-12-30T03:57:25.681Z,0
2016-12-30T03:58:06.102Z,0
2016-12-30T03:58:46.599Z,0
2016-12-30T03:59:27.075Z,0
2016-12-30T04:00:07.540Z,0
2016-12-30T04:00:48.017Z,0
2016-12-30T04:01:28.515Z,0
2016-12-30T04:02:08.995Z,0
2016-12-30T04:02:49.476Z,0
2016-12-30T04:03:29.966Z,0
2016-12-30T04:04:10.488Z,0
2016-12-30T04:04:50.967Z,0
2016-12-30T04:05:31.456Z,0
2016-12-30T04:08:04.999Z,0
2016-12-30T04:08:45.529Z,0
2016-12-30T04:09:26.081Z,0
2016-12-30T04:10:06.533Z,0
2016-12-30T04:10:47.008Z,0
2016-12-30T04:11:27.488Z,0
2016-12-30T04:12:07.959Z,0
2016-12-30T04:12:48.448Z,0
2016-12-30T04:13:28.986Z,0
2016-12-30T04:14:09.443Z,0
2016-12-30T04:14:49.937Z,0
2016-12-30T04:15:30.384Z,0
2016-12-30T04:16:10.877Z,0
2016-12-30T04:16:51.379Z,0
2016-12-30T04:17:31.845Z,0
2016-12-30T04:18:12.303Z,0
2016-12-30T04:18:52.796Z,0
2016-12-30T04:19:37.172Z,0
2016-12-30T04:20:17.699Z,0
2016-12-30T04:20:58.167Z,0
2016-12-30T04:21:38.666Z,0
2016-12-30T04:22:19.184Z,0
2016-12-30T04:22:59.620Z,0
2016-12-30T04:23:40.103Z,0
2016-12-30T04:24:20.568Z,0
2016-12-30T04:25:01.090Z,0
2016-12-30T04:25:41.555Z,0
2016-12-30T04:26:22.107Z,0
2016-12-30T04:27:02.591Z,0
2016-12-30T04:27:43.120Z,0
2016-12-30T04:28:23.621Z,0
2016-12-30T04:29:04.048Z,0
2016-12-30T04:29:44.591Z,0
2016-12-30T04:30:25.084Z,0
2016-12-30T04:31:05.698Z,0
2016-12-30T04:31:46.216Z,0
2016-12-30T04:32:26.621Z,0
2016-12-30T04:33:07.146Z,0
2016-12-30T04:33:47.604Z,0
2016-12-30T04:34:28.106Z,0
2016-12-30T04:35:08.538Z,0
2016-12-30T04:35:49.024Z,0
2016-12-30T04:36:29.538Z,0
2016-12-30T04:37:10.043Z,0
2016-12-30T04:37:50.489Z,0
2016-12-30T04:38:31.069Z,0
2016-12-30T04:39:11.549Z,0
2016-12-30T04:39:51.963Z,0
2016-12-30T04:40:32.439Z,0
2016-12-30T04:41:12.933Z,0
2016-12-30T04:41:53.384Z,0
2016-12-30T04:42:33.885Z,0
2016-12-30T04:43:14.398Z,0
2016-12-30T04:43:54.938Z,0
2016-12-30T04:44:35.428Z,0
2016-12-30T04:45:15.892Z,0
2016-12-30T04:45:56.345Z,0
2016-12-30T04:46:36.875Z,0
2016-12-30T04:47:17.346Z,0
2016-12-30T04:47:57.754Z,0
2016-12-30T04:48:38.280Z,0
2016-12-30T04:49:18.767Z,0
2016-12-30T04:49:59.219Z,0
2016-12-30T04:50:39.690Z,0
2016-12-30T04:51:20.206Z,0
2016-12-30T04:52:00.697Z,0
2016-12-30T04:52:41.172Z,0
2016-12-30T04:53:21.633Z,0
2016-12-30T04:54:02.138Z,0
2016-12-30T04:54:42.627Z,0
2016-12-30T04:55:23.138Z,0
2016-12-30T04:56:03.614Z,0
2016-12-30T04:56:44.131Z,0
2016-12-30T04:57:24.586Z,0
2016-12-30T04:58:05.079Z,0
2016-12-30T04:58:45.518Z,0
2016-12-30T04:59:26.026Z,0
2016-12-30T05:00:06.529Z,0
2016-12-30T05:00:47.003Z,0
2016-12-30T05:01:27.508Z,0
2016-12-30T05:02:08.012Z,0
2016-12-30T05:02:48.477Z,0
2016-12-30T05:03:28.944Z,0
2016-12-30T05:04:09.438Z,0
2016-12-30T05:04:49.948Z,0
2016-12-30T05:05:30.426Z,0
2016-12-30T05:06:10.902Z,0
2016-12-30T05:06:51.394Z,0
2016-12-30T05:07:31.858Z,0
2016-12-30T05:08:12.352Z,0
2016-12-30T05:08:52.832Z,0
2016-12-30T05:09:33.387Z,0
2016-12-30T05:10:13.817Z,0
2016-12-30T05:10:54.309Z,0
2016-12-30T05:11:34.803Z,0
2016-12-30T05:12:15.301Z,0
2016-12-30T05:12:55.827Z,0
2016-12-30T05:13:36.280Z,0
2016-12-30T05:14:16.741Z,0
2016-12-30T05:14:57.256Z,0
2016-12-30T05:15:37.706Z,0
2016-12-30T05:16:18.171Z,0
2016-12-30T05:16:58.729Z,0
2016-12-30T05:17:39.156Z,0
2016-12-30T05:18:19.640Z,0
2016-12-30T05:19:00.096Z,0
2016-12-30T05:19:40.634Z,0
2016-12-30T05:20:21.057Z,0
2016-12-30T05:21:01.546Z,0
2016-12-30T05:21:42.022Z,0
2016-12-30T05:22:22.531Z,0
2016-12-30T05:23:02.980Z,0
2016-12-30T05:23:43.490Z,0
2016-12-30T05:24:23.966Z,0
2016-12-30T05:25:04.419Z,0
2016-12-30T05:25:44.930Z,0
2016-12-30T05:26:25.425Z,0
2016-12-30T05:27:05.885Z,0
2016-12-30T05:27:46.397Z,0
2016-12-30T05:28:26.855Z,0
2016-12-30T05:29:07.322Z,0
2016-12-30T05:29:47.792Z,0
2016-12-30T05:30:28.298Z,0
2016-12-30T05:31:08.805Z,0
2016-12-30T05:31:49.248Z,0
2016-12-30T05:32:29.747Z,0
2016-12-30T05:33:10.245Z,0
2016-12-30T05:33:50.728Z,0
2016-12-30T05:34:31.172Z,0
2016-12-30T05:35:11.672Z,0
2016-12-30T05:35:52.121Z,0
2016-12-30T05:36:32.645Z,0
2016-12-30T05:37:13.099Z,0
2016-12-30T05:37:53.611Z,0
2016-12-30T05:38:34.146Z,0
2016-12-30T05:39:14.611Z,0
2016-12-30T05:39:55.105Z,0
2016-12-30T05:40:35.611Z,0
2016-12-30T05:41:16.079Z,0
2016-12-30T05:41:56.568Z,0
2016-12-30T05:42:37.024Z,0
2016-12-30T05:43:17.525Z,0
2016-12-30T05:43:58.089Z,0
2016-12-30T05:44:38.535Z,0
2016-12-30T05:45:19.004Z,0
2016-12-30T05:45:59.522Z,0
2016-12-30T05:46:40.018Z,0
2016-12-30T05:47:20.535Z,0
2016-12-30T05:48:00.995Z,0
2016-12-30T05:48:41.487Z,0
2016-12-30T05:49:21.959Z,0
2016-12-30T05:50:02.412Z,0
2016-12-30T05:50:42.901Z,0
2016-12-30T05:51:23.351Z,0
2016-12-30T05:52:03.821Z,0
2016-12-30T05:52:44.317Z,0
2016-12-30T05:53:24.846Z,0
2016-12-30T05:54:05.854Z,0
2016-12-30T05:54:45.770Z,0
2016-12-30T05:55:26.259Z,0
2016-12-30T05:56:06.771Z,0
2016-12-30T05:56:47.282Z,0
2016-12-30T05:57:27.778Z,0
2016-12-30T05:58:08.314Z,0
2016-12-30T05:58:48.722Z,0
2016-12-30T05:59:29.260Z,0
2016-12-30T06:00:09.705Z,0
2016-12-30T06:00:50.190Z,0
2016-12-30T06:01:30.665Z,0
2016-12-30T06:02:11.167Z,0
2016-12-30T06:02:51.659Z,0
2016-12-30T06:03:32.113Z,0
2016-12-30T06:04:12.588Z,0
2016-12-30T06:04:53.132Z,0
2016-12-30T06:05:33.592Z,0
2016-12-30T06:06:14.039Z,0
2016-12-30T06:06:54.567Z,0
2016-12-30T06:07:35.084Z,0
2016-12-30T06:08:15.560Z,0
2016-12-30T06:08:56.052Z,0
2016-12-30T06:09:36.510Z,0
2016-12-30T06:10:16.985Z,0
2016-12-30T06:10:57.480Z,0
2016-12-30T06:11:37.945Z,0
2016-12-30T06:12:18.439Z,0
2016-12-30T06:12:58.983Z,0
2016-12-30T06:13:39.414Z,0
2016-12-30T06:14:19.926Z,0
2016-12-30T06:15:00.435Z,0
2016-12-30T06:15:40.882Z,0
2016-12-30T06:16:21.340Z,0
2016-12-30T06:17:01.840Z,0
2016-12-30T06:17:42.291Z,0
2016-12-30T06:18:22.839Z,0
2016-12-30T06:19:03.315Z,0
2016-12-30T06:19:43.746Z,0
2016-12-30T06:20:24.283Z,0
2016-12-30T06:21:04.736Z,0
2016-12-30T06:21:45.225Z,0
2016-12-30T06:22:25.689Z,0
2016-12-30T06:23:06.150Z,0
2016-12-30T06:23:46.658Z,0
2016-12-30T06:24:27.228Z,0
2016-12-30T06:25:07.691Z,0
2016-12-30T06:25:48.283Z,0
2016-12-30T06:26:28.744Z,0
2016-12-30T06:27:09.229Z,0
2016-12-30T06:27:49.732Z,0
2016-12-30T06:28:30.286Z,0
2016-12-30T06:29:10.783Z,0
2016-12-30T06:29:51.227Z,0
2016-12-30T06:30:31.726Z,0
2016-12-30T06:31:12.248Z,0
2016-12-30T06:31:52.730Z,0
2016-12-30T06:32:33.182Z,0
2016-12-30T06:33:13.683Z,0
2016-12-30T06:33:54.176Z,0
2016-12-30T06:34:34.686Z,0
2016-12-30T06:35:15.138Z,0
2016-12-30T06:35:55.644Z,0
2016-12-30T06:36:36.124Z,0
2016-12-30T06:37:16.649Z,0
2016-12-30T06:37:57.104Z,0
2016-12-30T06:38:37.565Z,0
2016-12-30T06:39:18.030Z,0
2016-12-30T06:39:58.562Z,0
2016-12-30T06:40:39.001Z,0
2016-12-30T06:41:19.503Z,0
2016-12-30T06:42:00.037Z,0
2016-12-30T06:42:40.498Z,0
2016-12-30T06:43:20.989Z,0
2016-12-30T06:44:01.477Z,0
2016-12-30T06:44:41.938Z,0
2016-12-30T06:45:22.365Z,0
2016-12-30T06:46:03.075Z,0
2016-12-30T06:46:43.706Z,0
2016-12-30T06:47:24.131Z,0
2016-12-30T06:48:04.605Z,0
2016-12-30T06:48:45.086Z,0
2016-12-30T06:49:25.584Z,0
2016-12-30T06:50:06.237Z,0
2016-12-30T06:50:46.708Z,0
2016-12-30T06:51:27.199Z,0
2016-12-30T06:52:07.707Z,0
2016-12-30T06:52:48.234Z,0
2016-12-30T06:53:28.676Z,0
2016-12-30T06:54:09.184Z,0
2016-12-30T06:54:49.689Z,0
2016-12-30T06:55:30.190Z,0
2016-12-30T06:56:10.690Z,0
2016-12-30T06:56:51.140Z,0
2016-12-30T06:57:31.637Z,0
2016-12-30T06:58:12.147Z,0
2016-12-30T06:58:52.618Z,0
2016-12-30T06:59:33.143Z,0
2016-12-30T07:00:13.661Z,0
2016-12-30T07:00:54.179Z,0
2016-12-30T07:01:34.645Z,0
2016-12-30T07:02:15.152Z,0
2016-12-30T07:02:55.586Z,0
2016-12-30T07:03:36.054Z,0
2016-12-30T07:04:16.538Z,0
2016-12-30T07:04:57.040Z,0
2016-12-30T07:05:37.581Z,0
2016-12-30T07:06:18.057Z,0
2016-12-30T07:06:58.522Z,0
2016-12-30T07:07:39.027Z,0
2016-12-30T07:08:19.496Z,0
2016-12-30T07:08:59.940Z,0
2016-12-30T07:09:40.688Z,0
2016-12-30T07:10:21.182Z,0
2016-12-30T07:11:01.676Z,0
2016-12-30T07:11:43.194Z,0
2016-12-30T07:12:23.715Z,0
2016-12-30T07:13:04.239Z,0
2016-12-30T07:13:44.714Z,0
2016-12-30T07:14:26.007Z,0
2016-12-30T07:15:07.450Z,0
2016-12-30T07:15:47.945Z,0
2016-12-30T07:16:28.586Z,0
2016-12-30T07:17:09.039Z,0
2016-12-30T07:17:49.594Z,0
2016-12-30T07:18:30.074Z,0
2016-12-30T07:19:10.970Z,0
2016-12-30T07:19:51.445Z,0
2016-12-30T07:20:31.926Z,0
2016-12-30T07:21:12.593Z,0
2016-12-30T07:21:53.082Z,0
2016-12-30T07:22:33.559Z,0
2016-12-30T07:23:14.026Z,0
2016-12-30T07:23:54.487Z,0
2016-12-30T07:24:35.039Z,0
2016-12-30T07:25:15.522Z,5
2016-12-30T07:25:56.018Z,5
2016-12-30T07:26:37.282Z,5
2016-12-30T07:27:17.805Z,5
2016-12-30T07:27:58.213Z,5
2016-12-30T07:28:38.740Z,5
2016-12-30T07:29:19.364Z,5
2016-12-30T07:29:59.805Z,5
2016-12-30T07:30:40.295Z,5
2016-12-30T07:31:20.794Z,5
2016-12-30T07:32:01.236Z,5
2016-12-30T07:32:41.745Z,5
2016-12-30T07:33:22.199Z,5
2016-12-30T07:34:02.936Z,5
2016-12-30T07:34:43.313Z,5
2016-12-30T07:35:23.791Z,5
2016-12-30T07:36:04.307Z,10
2016-12-30T07:36:45.063Z,10
2016-12-30T07:37:26.171Z,10
2016-12-30T07:38:06.625Z,10
2016-12-30T07:38:47.119Z,10
2016-12-30T07:39:28.358Z,10
2016-12-30T07:40:08.058Z,10
2016-12-30T07:40:50.075Z,10
2016-12-30T07:41:30.502Z,10
2016-12-30T07:42:11.129Z,10
2016-12-30T07:42:51.614Z,10
2016-12-30T07:43:32.183Z,10
2016-12-30T07:44:12.642Z,10
2016-12-30T07:44:53.271Z,10
2016-12-30T07:45:33.776Z,10
2016-12-30T07:46:14.849Z,10
2016-12-30T07:46:55.318Z,15
2016-12-30T07:47:35.800Z,15
2016-12-30T07:48:16.266Z,15
2016-12-30T07:48:56.808Z,15
2016-12-30T07:49:37.244Z,15
2016-12-30T07:50:17.715Z,15
2016-12-30T07:50:58.228Z,15
2016-12-30T07:51:38.686Z,15
2016-12-30T07:52:19.169Z,15
2016-12-30T07:52:59.686Z,15
2016-12-30T07:53:40.183Z,15
2016-12-30T07:54:20.631Z,20
2016-12-30T07:55:01.137Z,20
2016-12-30T07:55:42.127Z,20
2016-12-30T07:56:22.641Z,20
2016-12-30T07:57:03.420Z,20
2016-12-30T07:57:43.873Z,20
2016-12-30T07:58:24.403Z,20
2016-12-30T07:59:04.874Z,20
2016-12-30T07:59:45.348Z,20
2016-12-30T08:00:25.860Z,20
2016-12-30T08:01:06.437Z,20
2016-12-30T08:01:46.934Z,25
2016-12-30T08:02:27.396Z,25
2016-12-30T08:03:07.894Z,25
2016-12-30T08:03:48.406Z,25
2016-12-30T08:04:28.910Z,25
2016-12-30T08:05:09.377Z,25
2016-12-30T08:05:49.860Z,25
2016-12-30T08:06:30.392Z,25
2016-12-30T08:07:10.838Z,25
2016-12-30T08:07:51.359Z,25
2016-12-30T08:08:31.814Z,25
2016-12-30T08:09:12.279Z,25
2016-12-30T08:09:52.762Z,30
2016-12-30T08:10:33.552Z,30
2016-12-30T08:11:14.007Z,30
2016-12-30T08:11:54.505Z,30
2016-12-30T08:12:34.994Z,30
2016-12-30T08:13:15.477Z,30
2016-12-30T08:13:55.946Z,30
2016-12-30T08:14:36.428Z,30
2016-12-30T08:15:16.982Z,30
2016-12-30T08:15:57.510Z,30
2016-12-30T08:16:37.985Z,30
2016-12-30T08:17:18.468Z,30
2016-12-30T08:17:59.037Z,35
2016-12-30T08:18:39.578Z,35
2016-12-30T08:19:20.078Z,35
2016-12-30T08:20:00.503Z,35
2016-12-30T08:20:41.038Z,35
2016-12-30T08:21:21.502Z,35
2016-12-30T08:22:01.980Z,35
2016-12-30T08:22:42.495Z,35
2016-12-30T08:23:22.993Z,35
2016-12-30T08:24:03.463Z,35
2016-12-30T08:24:43.967Z,40
2016-12-30T08:25:24.462Z,40
2016-12-30T08:26:04.929Z,40
2016-12-30T08:26:45.454Z,40
2016-12-30T08:27:25.929Z,40
2016-12-30T08:28:06.763Z,40
2016-12-30T08:28:47.315Z,45
2016-12-30T08:29:27.867Z,45
2016-12-30T08:30:08.345Z,45
2016-12-30T08:30:48.827Z,45
2016-12-30T08:31:29.337Z,45
2016-12-30T08:32:09.823Z,45
2016-12-30T08:32:50.376Z,45
2016-12-30T08:33:30.863Z,45
2016-12-30T08:34:11.387Z,45
2016-12-30T08:34:51.894Z,45
2016-12-30T08:35:32.421Z,45
2016-12-30T08:36:12.891Z,50
2016-12-30T08:36:53.380Z,50
2016-12-30T08:37:33.889Z,50
2016-12-30T08:38:14.454Z,50
2016-12-30T08:38:54.901Z,50
2016-12-30T08:39:35.393Z,55
2016-12-30T08:40:15.849Z,55
2016-12-30T08:40:56.427Z,55
2016-12-30T08:41:36.851Z,55
2016-12-30T08:42:17.409Z,55
2016-12-30T08:42:57.858Z,55
2016-12-30T08:43:38.310Z,55
2016-12-30T08:44:18.782Z,55
2016-12-30T08:44:59.342Z,55
2016-12-30T08:45:39.797Z,55
2016-12-30T08:46:20.368Z,55
2016-12-30T08:47:00.820Z,55
2016-12-30T08:47:41.266Z,55
2016-12-30T08:48:21.729Z,60
2016-12-30T08:49:02.287Z,60
2016-12-30T08:49:42.724Z,60
2016-12-30T08:50:23.188Z,60
2016-12-30T08:51:03.702Z,60
2016-12-30T08:51:44.472Z,55
2016-12-30T08:52:25.891Z,55
2016-12-30T08:53:06.350Z,55
2016-12-30T08:53:47.239Z,60
2016-12-30T08:54:27.733Z,60
2016-12-30T08:55:08.261Z,60
2016-12-30T08:55:48.673Z,60
2016-12-30T08:56:29.130Z,55
2016-12-30T08:57:09.636Z,55
2016-12-30T08:57:50.172Z,55
2016-12-30T08:58:30.636Z,60
2016-12-30T08:59:11.166Z,60
2016-12-30T08:59:51.641Z,60
2016-12-30T09:00:32.323Z,60
2016-12-30T09:01:12.877Z,60
2016-12-30T09:01:53.387Z,30
2016-12-30T09:02:33.882Z,25
2016-12-30T09:03:14.364Z,30
2016-12-30T09:03:55.048Z,35
2016-12-30T09:04:35.460Z,35
2016-12-30T09:05:15.941Z,35
2016-12-30T09:05:56.415Z,35
2016-12-30T09:06:36.914Z,35
2016-12-30T09:07:17.397Z,35
2016-12-30T09:07:57.917Z,40
2016-12-30T09:08:38.386Z,40
2016-12-30T09:09:18.932Z,40
2016-12-30T09:09:59.375Z,40
2016-12-30T09:10:39.863Z,40
2016-12-30T09:11:20.379Z,40
2016-12-30T09:12:00.828Z,40
2016-12-30T09:12:41.443Z,40
2016-12-30T09:13:21.909Z,40
2016-12-30T09:14:03.146Z,40
2016-12-30T09:14:43.687Z,40
2016-12-30T09:15:24.170Z,40
2016-12-30T09:16:04.659Z,40
2016-12-30T09:16:45.080Z,40
2016-12-30T09:17:25.976Z,40
2016-12-30T09:18:06.488Z,45
2016-12-30T09:18:47.102Z,40
2016-12-30T09:19:27.573Z,45
2016-12-30T09:20:08.069Z,45
2016-12-30T09:20:48.564Z,45
2016-12-30T09:21:29.115Z,45
2016-12-30T09:22:09.581Z,45
2016-12-30T09:22:50.078Z,45
2016-12-30T09:23:30.551Z,45
2016-12-30T09:24:11.045Z,45
2016-12-30T09:24:51.469Z,45
2016-12-30T09:25:32.008Z,45
2016-12-30T09:26:12.454Z,45
2016-12-30T09:26:53.106Z,50
2016-12-30T09:27:33.592Z,50
2016-12-30T09:28:14.126Z,50
2016-12-30T09:28:54.575Z,50
2016-12-30T09:29:35.268Z,50
2016-12-30T09:30:15.681Z,50
2016-12-30T09:30:56.154Z,50
2016-12-30T09:31:36.594Z,50
2016-12-30T09:32:17.145Z,50
2016-12-30T09:32:57.632Z,50
2016-12-30T09:33:38.119Z,50
2016-12-30T09:34:18.673Z,50
2016-12-30T09:34:59.141Z,50
2016-12-30T09:35:39.639Z,50
2016-12-30T09:36:20.126Z,50
2016-12-30T09:37:00.649Z,50
2016-12-30T09:37:41.199Z,50
2016-12-30T09:38:21.654Z,50
2016-12-30T09:39:02.155Z,50
2016-12-30T09:39:42.617Z,50
2016-12-30T09:40:23.082Z,45
2016-12-30T09:41:03.631Z,50
2016-12-30T09:41:44.127Z,50
2016-12-30T09:42:24.540Z,45
2016-12-30T09:43:05.092Z,45
2016-12-30T09:43:45.573Z,45
2016-12-30T09:44:26.164Z,45
2016-12-30T09:45:06.615Z,45
2016-12-30T09:45:47.071Z,45
2016-12-30T09:46:27.614Z,45
2016-12-30T09:47:08.061Z,45
2016-12-30T09:47:48.546Z,45
2016-12-30T09:48:29.048Z,45
2016-12-30T09:49:09.574Z,45
2016-12-30T09:49:50.023Z,50
2016-12-30T09:50:30.509Z,50
2016-12-30T09:51:11.002Z,55
2016-12-30T09:51:51.546Z,55
2016-12-30T09:52:32.017Z,55
2016-12-30T09:53:12.519Z,55
2016-12-30T09:53:53.038Z,55
2016-12-30T09:54:33.514Z,55
2016-12-30T09:55:14.007Z,55
2016-12-30T09:55:54.504Z,55
2016-12-30T09:56:34.975Z,55
2016-12-30T09:57:15.540Z,50